Time;durP1;ratioP1;P1;durP2;ratioP2;P2;SDS_P1;SDS_P2;PMS_P1;PMS_P2;Temp;Humidity;BMP_temperature;BMP_pressure;BME280_temperature;BME280_humidity;BME280_pressure;Samples;Min_cycle;Max_cycle;Signal;HPM_P1;HPM_P2
2021/12/12 00:01:22;;;;;;;6.72;6.12;;;;;;;7.10;84.80;100077.13;1631046;86;21570;-61
2021/12/12 00:03:53;;;;;;;6.95;6.42;;;;;;;7.09;84.71;100093.28;1593366;87;21454;-60
2021/12/12 00:06:30;;;;;;;8.18;6.62;;;;;;;7.10;84.63;100098.94;1629015;85;21587;-61
2021/12/12 00:09:03;;;;;;;7.75;6.83;;;;;;;7.17;84.59;100097.03;1622358;86;21565;-60
2021/12/12 00:11:31;;;;;;;8.08;7.37;;;;;;;7.18;84.49;100102.69;1634143;86;21707;-61
2021/12/12 00:14:09;;;;;;;10.70;9.63;;;;;;;7.14;84.66;100112.77;1643270;86;21557;-60
2021/12/12 00:16:36;;;;;;;7.30;6.60;;;;;;;7.12;84.69;100117.18;1623417;86;21542;-61
2021/12/12 00:19:03;;;;;;;6.55;5.80;;;;;;;7.13;84.74;100121.08;1583755;89;21704;-61
2021/12/12 00:21:31;;;;;;;6.70;6.10;;;;;;;7.20;84.73;100129.67;1587952;89;21623;-61
2021/12/12 00:23:57;;;;;;;6.95;6.35;;;;;;;7.26;84.71;100129.98;1620800;87;21597;-60
2021/12/12 00:26:24;;;;;;;8.00;7.20;;;;;;;7.25;84.71;100129.56;1613866;86;21518;-60
2021/12/12 00:28:51;;;;;;;7.92;7.12;;;;;;;7.22;84.75;100127.88;1622071;86;21572;-60
2021/12/12 00:31:21;;;;;;;8.10;7.40;;;;;;;7.25;84.79;100125.17;1628166;86;21490;-61
2021/12/12 00:33:50;;;;;;;8.05;7.35;;;;;;;7.33;84.76;100118.50;1627986;86;21494;-61
2021/12/12 00:36:18;;;;;;;9.88;8.90;;;;;;;7.41;84.66;100126.58;1624815;86;21884;-61
2021/12/12 00:38:49;;;;;;;10.58;9.55;;;;;;;7.39;84.60;100116.59;1634158;86;21433;-61
2021/12/12 00:41:19;;;;;;;11.45;10.30;;;;;;;7.38;84.73;100120.12;1635317;86;20986;-61
2021/12/12 00:43:48;;;;;;;11.57;10.38;;;;;;;7.33;84.64;100119.35;1628648;86;21466;-61
2021/12/12 00:46:15;;;;;;;12.93;11.63;;;;;;;7.32;84.90;100118.07;1631897;86;21541;-60
2021/12/12 00:48:43;;;;;;;12.43;10.90;;;;;;;7.36;84.96;100120.58;1624262;86;21747;-61
2021/12/12 00:51:13;;;;;;;14.35;12.43;;;;;;;7.33;85.21;100119.35;1595389;87;21565;-60
2021/12/12 00:53:41;;;;;;;14.23;12.40;;;;;;;7.29;85.34;100116.40;1611520;86;21548;-60
2021/12/12 00:57:59;;;;;;;12.50;11.28;;;;;;;7.26;85.67;100121.69;1784927;78;23081;-59
2021/12/12 01:00:30;;;;;;;16.12;13.83;;;;;;;7.29;85.63;100120.74;1764629;80;21549;-60
2021/12/12 01:02:58;;;;;;;12.53;11.22;;;;;;;7.32;85.46;100128.08;1765411;80;21810;-59
2021/12/12 01:05:25;;;;;;;12.73;11.35;;;;;;;7.27;85.66;100134.30;1757675;80;21479;-60
2021/12/12 01:07:52;;;;;;;13.45;11.45;;;;;;;7.23;85.79;100142.66;1765204;80;20978;-61
2021/12/12 01:10:27;;;;;;;15.65;10.90;;;;;;;7.23;85.90;100146.58;1770989;79;20942;-60
2021/12/12 01:12:55;;;;;;;11.70;10.25;;;;;;;7.29;85.86;100145.59;1757263;80;21502;-60
2021/12/12 01:15:33;;;;;;;13.00;10.48;;;;;;;7.38;85.71;100144.09;1757541;80;21535;-60
2021/12/12 01:18:07;;;;;;;12.00;10.65;;;;;;;7.37;85.53;100148.47;1758872;80;21496;-59
2021/12/12 01:20:52;;;;;;;12.45;10.55;;;;;;;7.30;85.52;100145.56;1762093;80;21555;-60
2021/12/12 01:23:28;;;;;;;14.28;10.35;;;;;;;7.23;85.60;100146.58;1751893;80;21428;-60
2021/12/12 01:25:55;;;;;;;12.10;10.78;;;;;;;7.22;85.67;100139.65;1759229;80;21553;-60
2021/12/12 01:28:27;;;;;;;11.57;10.48;;;;;;;7.27;85.80;100132.58;1768218;80;21836;-61
2021/12/12 01:30:56;;;;;;;12.33;10.60;;;;;;;7.32;85.74;100145.54;1772051;79;21569;-60
2021/12/12 01:33:33;;;;;;;13.90;11.60;;;;;;;7.29;85.65;100142.98;1750320;80;21040;-61
2021/12/12 01:36:12;;;;;;;10.72;9.60;;;;;;;7.21;85.66;100145.75;1758135;80;22033;-60
2021/12/12 01:38:52;;;;;;;10.80;9.73;;;;;;;7.24;85.82;100151.39;1757141;80;21005;-61
2021/12/12 01:41:33;;;;;;;10.60;9.48;;;;;;;7.32;85.50;100156.00;1757358;80;21804;-60
2021/12/12 01:44:05;;;;;;;9.93;8.93;;;;;;;7.28;85.61;100153.89;1757379;80;21486;-60
2021/12/12 01:46:36;;;;;;;14.73;10.50;;;;;;;7.21;85.56;100154.48;1765769;80;21569;-60
2021/12/12 01:49:17;;;;;;;10.85;9.75;;;;;;;7.17;85.56;100158.48;1754955;80;21525;-60
2021/12/12 01:51:44;;;;;;;11.40;9.08;;;;;;;7.17;85.67;100155.87;1765645;80;21600;-60
2021/12/12 01:54:11;;;;;;;9.55;8.65;;;;;;;7.25;85.59;100155.25;1767851;80;22489;-60
2021/12/12 01:56:43;;;;;;;10.03;9.03;;;;;;;7.25;85.55;100155.71;1768473;80;21044;-61
2021/12/12 01:59:12;;;;;;;10.10;9.10;;;;;;;7.18;85.55;100159.77;1766971;79;21104;-61
2021/12/12 02:01:44;;;;;;;9.25;8.33;;;;;;;7.14;85.68;100155.50;1764692;80;21450;-61
2021/12/12 02:04:19;;;;;;;8.40;7.60;;;;;;;7.17;85.72;100155.87;1770439;80;21065;-61
2021/12/12 02:06:47;;;;;;;9.53;8.58;;;;;;;7.24;85.63;100155.31;1766353;80;21748;-60
2021/12/12 02:09:15;;;;;;;11.25;9.23;;;;;;;7.28;85.54;100164.36;1749025;80;21586;-60
2021/12/12 02:11:43;;;;;;;11.10;9.83;;;;;;;7.25;85.44;100170.95;1759634;80;21502;-60
2021/12/12 02:14:13;;;;;;;9.35;8.38;;;;;;;7.18;85.43;100172.84;1755742;80;21487;-60
2021/12/12 02:16:45;;;;;;;9.60;8.68;;;;;;;7.16;85.67;100164.62;1771958;80;21584;-60
2021/12/12 02:19:13;;;;;;;9.30;8.35;;;;;;;7.21;85.56;100168.88;1757609;80;21692;-60
2021/12/12 02:22:00;;;;;;;9.68;8.78;;;;;;;7.23;85.54;100175.36;1739306;80;21069;-60
2021/12/12 02:35:41;;;;;;;10.58;8.53;;;;;;;7.25;85.57;100181.41;1755315;80;21439;-59
2021/12/12 02:37:56;;;;;;;9.58;8.65;;;;;;;7.19;85.52;100173.24;1748828;80;21480;-60
2021/12/12 02:40:31;;;;;;;9.88;8.43;;;;;;;7.14;85.55;100174.23;1761115;80;21435;-60
2021/12/12 02:42:58;;;;;;;9.90;7.78;;;;;;;7.14;85.63;100170.31;1763562;80;21637;-60
2021/12/12 02:45:27;;;;;;;8.60;7.70;;;;;;;7.19;85.65;100168.02;1755384;80;21743;-60
2021/12/12 02:47:58;;;;;;;9.23;8.10;;;;;;;7.19;85.54;100169.32;1750356;80;21013;-60
2021/12/12 02:50:27;;;;;;;9.58;8.50;;;;;;;7.18;85.63;100175.92;1765027;80;21455;-61
2021/12/12 02:53:03;;;;;;;11.63;8.00;;;;;;;7.15;85.64;100174.20;1758622;80;21462;-61
2021/12/12 02:55:34;;;;;;;9.13;7.87;;;;;;;7.13;85.84;100176.45;1763487;80;21474;-59
2021/12/12 02:58:02;;;;;;;8.63;7.78;;;;;;;7.19;85.86;100171.09;1762711;80;21909;-61
2021/12/12 03:00:34;;;;;;;11.93;8.53;;;;;;;7.22;85.83;100174.95;1757465;80;28661;-61
2021/12/12 03:03:01;;;;;;;10.60;8.63;;;;;;;7.24;85.89;100171.86;1698765;83;21085;-60
2021/12/12 03:05:32;;;;;;;10.72;8.15;;;;;;;7.22;86.54;100174.95;1696024;83;21007;-60
2021/12/12 03:07:58;;;;;;;12.88;8.05;;;;;;;7.17;86.17;100171.11;1717670;82;21534;-60
2021/12/12 03:10:30;;;;;;;11.05;8.50;;;;;;;7.16;86.36;100171.17;1717737;82;21833;-61
2021/12/12 03:12:58;;;;;;;11.63;8.23;;;;;;;7.18;86.54;100175.47;1689356;83;21517;-61
2021/12/12 03:15:30;;;;;;;11.65;8.00;;;;;;;7.21;86.83;100191.11;1709563;82;21507;-61
2021/12/12 03:17:59;;;;;;;12.65;8.68;;;;;;;7.21;87.44;100178.45;1726852;82;21455;-60
2021/12/12 03:20:32;;;;;;;12.40;8.75;;;;;;;7.22;87.58;100181.50;1718439;82;21514;-59
2021/12/12 03:23:19;;;;;;;12.35;8.45;;;;;;;7.19;87.50;100182.40;1721476;82;22068;-60
2021/12/12 03:25:49;;;;;;;11.38;8.63;;;;;;;7.19;87.71;100195.48;1717338;82;21062;-61
2021/12/12 03:28:19;;;;;;;9.95;8.23;;;;;;;7.23;88.59;100189.73;1713307;82;21394;-60
2021/12/12 03:30:46;;;;;;;11.08;8.33;;;;;;;7.26;88.22;100193.61;1722554;82;21460;-61
2021/12/12 03:33:13;;;;;;;14.07;8.95;;;;;;;7.31;88.23;100193.08;1730372;82;21623;-60
2021/12/12 03:35:40;;;;;;;12.90;8.90;;;;;;;7.27;88.42;100197.08;1733889;81;22159;-61
2021/12/12 03:38:06;;;;;;;13.28;8.73;;;;;;;7.27;88.42;100197.08;1714313;82;21430;-60
2021/12/12 03:40:38;;;;;;;13.08;8.63;;;;;;;7.24;88.51;100202.39;1724359;82;21402;-60
2021/12/12 03:43:06;;;;;;;16.90;8.95;;;;;;;7.29;88.63;100197.48;1726187;82;21465;-62
2021/12/12 03:45:33;;;;;;;10.85;8.30;;;;;;;7.33;88.91;100203.06;1725136;82;20994;-60
2021/12/12 03:48:21;;;;;;;9.53;7.65;;;;;;;7.36;88.72;100202.13;1726663;82;21866;-61
2021/12/12 03:50:49;;;;;;;10.80;8.23;;;;;;;7.37;88.73;100193.41;1719972;82;21073;-59
2021/12/12 03:53:16;;;;;;;12.50;8.45;;;;;;;7.35;88.77;100193.88;1719449;81;21498;-60
2021/12/12 03:55:44;;;;;;;9.50;7.50;;;;;;;7.35;88.85;100197.80;1722941;80;21523;-59
2021/12/12 03:58:11;;;;;;;10.40;7.33;;;;;;;7.37;88.82;100194.70;1706759;82;21548;-60
2021/12/12 04:00:52;;;;;;;11.45;7.62;;;;;;;7.41;88.74;100195.91;1703500;82;21870;-60
2021/12/12 04:03:19;;;;;;;11.88;7.83;;;;;;;7.46;88.78;100195.83;1703830;81;21416;-60
2021/12/12 04:05:54;;;;;;;13.43;7.75;;;;;;;7.49;88.90;100198.81;1711677;82;21456;-60
2021/12/12 04:08:29;;;;;;;13.40;7.90;;;;;;;7.44;88.94;100205.89;1716916;82;21448;-61
2021/12/12 04:10:56;;;;;;;14.93;8.00;;;;;;;7.39;89.01;100199.00;1703199;83;21523;-61
2021/12/12 04:13:24;;;;;;;13.10;7.75;;;;;;;7.36;89.20;100199.05;1696789;83;21733;-61
2021/12/12 04:15:54;;;;;;;10.95;8.08;;;;;;;7.40;89.24;100199.44;1711798;82;21550;-59
2021/12/12 04:18:27;;;;;;;11.65;7.03;;;;;;;7.46;89.31;100204.09;1697962;82;21455;-60
2021/12/12 04:20:54;;;;;;;11.28;7.67;;;;;;;7.50;89.36;100200.55;1707120;82;21632;-62
2021/12/12 04:23:24;;;;;;;13.15;8.65;;;;;;;7.51;89.40;100207.03;1700019;82;21546;-61
2021/12/12 04:25:51;;;;;;;13.85;7.72;;;;;;;7.52;89.69;100200.07;1702151;82;21606;-61
2021/12/12 04:28:18;;;;;;;11.08;8.73;;;;;;;7.50;89.56;100197.94;1707566;83;21582;-64
2021/12/12 04:30:46;;;;;;;12.93;7.73;;;;;;;7.45;89.55;100206.31;1712804;82;21451;-61
2021/12/12 04:33:13;;;;;;;11.50;8.30;;;;;;;7.43;90.06;100198.50;1699453;82;21509;-61
2021/12/12 04:35:40;;;;;;;12.93;8.15;;;;;;;7.47;89.79;100205.84;1710825;82;20975;-61
2021/12/12 04:38:06;;;;;;;14.18;8.30;;;;;;;7.49;89.73;100201.42;1703399;83;21809;-61
2021/12/12 04:40:35;;;;;;;;;;;;;;;7.52;89.67;100210.53;1715368;82;21432;-61
2021/12/12 04:43:02;;;;;;;14.20;8.40;;;;;;;7.51;90.22;100207.03;1701811;82;20437;-60
2021/12/12 04:45:37;;;;;;;11.75;8.65;;;;;;;7.50;90.05;100204.02;1715519;81;21574;-59
2021/12/12 04:51:20;;;;;;;11.48;8.20;;;;;;;7.45;89.77;100201.09;1712591;82;21744;-60
2021/12/12 04:53:55;;;;;;;13.60;9.40;;;;;;;7.41;89.86;100208.98;1712157;82;20967;-59
2021/12/12 04:56:49;;;;;;;18.70;8.45;;;;;;;7.39;89.61;100204.69;1702729;83;21653;-61
2021/12/12 04:59:26;;;;;;;12.63;9.30;;;;;;;7.43;89.69;100205.03;1706222;82;21425;-59
2021/12/12 05:02:26;;;;;;;15.65;9.53;;;;;;;7.49;89.73;100218.44;1708253;82;21564;-60
2021/12/12 05:05:12;;;;;;;10.60;7.97;;;;;;;7.52;89.63;100210.53;1762788;80;22089;-60
2021/12/12 05:07:49;;;;;;;11.00;8.23;;;;;;;7.50;89.10;100217.56;1765422;80;21423;-60
2021/12/12 05:10:22;;;;;;;15.85;8.98;;;;;;;7.47;88.97;100210.61;1759983;80;21992;-62
2021/12/12 05:13:21;;;;;;;13.20;9.33;;;;;;;7.48;88.95;100208.42;1753232;80;21502;-62
2021/12/12 05:15:52;;;;;;;13.38;10.30;;;;;;;7.52;88.99;100214.00;1759495;80;21403;-61
2021/12/12 05:18:28;;;;;;;14.75;10.38;;;;;;;7.54;88.87;100217.90;1765656;80;21725;-61
2021/12/12 05:21:10;;;;;;;12.88;10.88;;;;;;;7.51;88.73;100224.04;1749316;80;21516;-60
2021/12/12 05:23:40;;;;;;;14.45;12.23;;;;;;;7.50;88.87;100226.27;1771227;80;20943;-62
2021/12/12 05:26:17;;;;;;;18.73;12.03;;;;;;;7.53;88.57;100226.63;1762348;80;21540;-61
2021/12/12 05:28:54;;;;;;;20.10;12.13;;;;;;;7.49;88.64;100221.91;1755586;80;21041;-62
2021/12/12 05:31:21;;;;;;;12.93;11.55;;;;;;;7.46;88.36;100223.30;1743747;80;21589;-60
2021/12/12 05:33:52;;;;;;;15.28;11.55;;;;;;;7.38;88.95;100227.38;1724945;82;21423;-60
2021/12/12 05:36:18;;;;;;;31.68;13.10;;;;;;;7.29;88.77;100222.76;1757230;80;21549;-60
2021/12/12 05:38:45;;;;;;;15.60;11.80;;;;;;;7.16;89.61;100228.70;1754811;80;20962;-60
2021/12/12 05:41:12;;;;;;;15.72;11.28;;;;;;;7.08;89.65;100233.20;1759845;80;21574;-61
2021/12/12 05:43:39;;;;;;;18.70;11.30;;;;;;;7.06;89.92;100244.13;1757778;80;21821;-60
2021/12/12 05:46:06;;;;;;;14.60;12.23;;;;;;;6.98;90.01;100250.36;1746630;80;21587;-60
2021/12/12 05:48:33;;;;;;;20.35;12.73;;;;;;;6.94;90.75;100259.61;1760242;80;22257;-60
2021/12/12 05:51:00;;;;;;;20.92;12.63;;;;;;;6.87;90.87;100254.92;1763241;80;21632;-61
2021/12/12 05:53:27;;;;;;;15.08;12.58;;;;;;;6.90;90.72;100265.80;1761902;80;21120;-60
2021/12/12 05:55:54;;;;;;;21.27;12.98;;;;;;;6.88;91.51;100268.42;1759620;80;21481;-60
2021/12/12 05:58:21;;;;;;;20.15;14.10;;;;;;;6.89;91.14;100268.83;1758975;80;21439;-60
2021/12/12 06:00:56;;;;;;;21.93;14.70;;;;;;;6.85;91.18;100269.77;1752692;80;27225;-61
2021/12/12 06:03:27;;;;;;;25.82;13.93;;;;;;;6.79;91.25;100271.20;1749018;80;21487;-62
2021/12/12 06:05:55;;;;;;;21.35;13.53;;;;;;;6.75;91.34;100279.98;1747132;80;21668;-62
2021/12/12 06:08:22;;;;;;;;;;;;;;;6.75;91.68;100284.76;1737531;80;22096;-63
2021/12/12 06:10:49;;;;;;;27.75;14.47;;;;;;;6.72;91.58;100284.80;1742481;80;20462;-60
2021/12/12 06:13:17;;;;;;;23.00;13.43;;;;;;;6.67;91.57;100285.77;1748905;80;21590;-59
2021/12/12 06:15:50;;;;;;;18.62;13.13;;;;;;;6.59;91.63;100292.00;1757878;79;21624;-61
2021/12/12 06:18:20;;;;;;;21.50;13.60;;;;;;;6.58;91.86;100293.33;1740363;80;22770;-61
2021/12/12 06:20:46;;;;;;;18.80;13.72;;;;;;;6.56;91.85;100297.27;1741821;80;21804;-60
2021/12/12 06:23:14;;;;;;;20.23;14.10;;;;;;;6.58;92.26;100300.72;1740183;80;21006;-61
2021/12/12 06:25:40;;;;;;;21.93;14.45;;;;;;;6.57;92.28;100298.13;1743447;80;21566;-60
2021/12/12 06:28:23;;;;;;;23.12;14.20;;;;;;;6.55;92.26;100292.91;1747601;80;21565;-61
2021/12/12 06:30:51;;;;;;;20.25;14.93;;;;;;;6.55;92.03;100302.06;1753596;80;21448;-60
2021/12/12 06:33:18;;;;;;;22.37;15.98;;;;;;;6.56;92.24;100306.41;1750583;80;21799;-61
2021/12/12 06:35:45;;;;;;;25.12;15.32;;;;;;;6.55;94.59;100310.34;1756166;80;21458;-60
2021/12/12 06:38:14;;;;;;;22.35;14.23;;;;;;;6.54;92.89;100307.33;1749748;80;21545;-61
2021/12/12 06:40:41;;;;;;;21.62;13.35;;;;;;;6.47;92.06;100317.00;1749626;80;20954;-59
2021/12/12 06:43:10;;;;;;;18.50;13.90;;;;;;;6.41;92.15;100311.87;1744215;80;21014;-60
2021/12/12 06:45:37;;;;;;;13.00;11.38;;;;;;;6.35;91.74;100313.28;1749845;80;22112;-60
2021/12/12 06:48:05;;;;;;;16.15;12.00;;;;;;;6.34;92.23;100318.07;1747583;80;21495;-59
2021/12/12 06:50:33;;;;;;;19.60;12.53;;;;;;;6.30;93.19;100321.63;1754394;80;21498;-61
2021/12/12 06:53:00;;;;;;;16.35;11.48;;;;;;;6.29;92.46;100317.27;1706976;80;21578;-60
2021/12/12 06:55:27;;;;;;;22.77;11.50;;;;;;;6.27;92.29;100320.34;1746382;80;21463;-59
2021/12/12 06:57:53;;;;;;;19.23;12.00;;;;;;;6.24;92.58;100324.73;1750488;79;21758;-60
2021/12/12 07:00:22;;;;;;;14.55;11.55;;;;;;;6.23;92.04;100326.05;1748721;80;20998;-60
2021/12/12 07:02:49;;;;;;;16.15;11.43;;;;;;;6.12;91.50;100322.73;1753976;80;21495;-60
2021/12/12 07:05:19;;;;;;;17.10;12.18;;;;;;;6.04;92.37;100333.27;1760717;80;21506;-61
2021/12/12 07:07:47;;;;;;;14.33;10.32;;;;;;;5.98;92.16;100336.83;1765700;80;21033;-59
2021/12/12 07:10:15;;;;;;;15.32;11.48;;;;;;;6.01;92.58;100335.95;1757314;80;21784;-59
2021/12/12 07:12:42;;;;;;;14.63;11.30;;;;;;;6.00;91.80;100338.98;1768375;80;21439;-59
2021/12/12 07:15:12;;;;;;;10.18;9.13;;;;;;;5.95;91.86;100334.66;1762559;79;20998;-59
2021/12/12 07:17:39;;;;;;;11.95;9.68;;;;;;;5.92;93.01;100334.73;1756390;80;21505;-59
2021/12/12 07:20:09;;;;;;;25.50;10.50;;;;;;;5.88;91.84;100333.01;1751544;80;21538;-61
2021/12/12 07:22:37;;;;;;;16.55;10.70;;;;;;;5.78;92.07;100345.31;1766739;80;21785;-56
2021/12/12 07:25:05;;;;;;;13.72;10.38;;;;;;;5.69;92.66;100339.78;1755208;80;21507;-57
2021/12/12 07:27:32;;;;;;;12.07;10.58;;;;;;;5.73;92.59;100345.38;1763825;80;21482;-57
2021/12/12 07:30:00;;;;;;;10.63;9.53;;;;;;;5.75;91.73;100346.67;1752159;80;21491;-59
2021/12/12 07:32:27;;;;;;;11.70;10.50;;;;;;;5.74;91.66;100352.76;1753342;80;21431;-59
2021/12/12 07:34:54;;;;;;;17.57;9.85;;;;;;;5.67;91.11;100348.07;1758527;80;22109;-59
2021/12/12 07:37:20;;;;;;;14.85;10.08;;;;;;;5.60;91.30;100345.95;1754860;80;21553;-61
2021/12/12 07:39:47;;;;;;;10.50;9.45;;;;;;;5.57;91.52;100352.50;1769402;80;21466;-59
2021/12/12 07:42:15;;;;;;;11.68;9.18;;;;;;;5.60;91.34;100358.14;1763605;80;21506;-60
2021/12/12 07:44:44;;;;;;;10.18;9.18;;;;;;;5.62;90.85;100364.21;1756518;80;21585;-60
2021/12/12 07:47:13;;;;;;;12.47;8.45;;;;;;;5.59;90.40;100359.87;1749907;80;21783;-59
2021/12/12 07:49:44;;;;;;;13.53;9.40;;;;;;;5.56;90.64;100361.67;1762477;80;21648;-59
2021/12/12 07:52:15;;;;;;;10.63;8.58;;;;;;;5.51;91.27;100356.94;1752569;80;21609;-60
2021/12/12 07:54:43;;;;;;;10.35;9.13;;;;;;;5.45;91.16;100360.03;1757930;80;21565;-59
2021/12/12 07:57:10;;;;;;;15.35;9.25;;;;;;;5.48;90.29;100366.09;1739401;80;21215;-59
2021/12/12 07:59:38;;;;;;;10.43;8.38;;;;;;;5.50;90.11;100369.55;1759617;80;22020;-60
2021/12/12 08:02:05;;;;;;;9.60;8.30;;;;;;;5.48;89.62;100376.08;1739308;80;21045;-59
2021/12/12 08:04:32;;;;;;;;;;;;;;;5.46;89.71;100373.50;1755093;80;21495;-58
2021/12/12 08:07:00;;;;;;;10.58;9.43;;;;;;;5.40;89.61;100376.60;1744381;80;20425;-59
2021/12/12 08:09:28;;;;;;;13.20;8.88;;;;;;;5.29;89.69;100366.27;1752895;80;21416;-59
2021/12/12 08:11:56;;;;;;;10.05;8.88;;;;;;;5.27;89.70;100366.72;1739891;80;21404;-59
2021/12/12 08:14:26;;;;;;;11.53;8.93;;;;;;;5.27;89.60;100374.55;1736796;80;21413;-56
2021/12/12 08:16:54;;;;;;;10.03;8.50;;;;;;;5.31;89.89;100371.47;1736477;80;21516;-59
2021/12/12 08:19:23;;;;;;;9.73;8.60;;;;;;;5.27;89.83;100371.94;1753499;80;27430;-56
2021/12/12 08:21:50;;;;;;;11.48;10.15;;;;;;;5.23;89.75;100371.09;1755744;80;20942;-57
2021/12/12 08:24:17;;;;;;;10.35;8.65;;;;;;;5.17;89.76;100376.83;1732371;80;21517;-58
2021/12/12 08:26:45;;;;;;;12.33;8.85;;;;;;;5.17;89.98;100375.08;1737161;80;21054;-57
2021/12/12 08:29:12;;;;;;;;;;;;;;;5.23;90.10;100384.59;1753544;79;21085;-57
2021/12/12 08:31:39;;;;;;;9.85;8.23;;;;;;;5.28;89.99;100380.65;1744955;79;20452;-58
2021/12/12 08:34:08;;;;;;;10.90;9.80;;;;;;;5.31;89.86;100379.30;1745095;80;21722;-57
2021/12/12 08:36:36;;;;;;;11.88;10.25;;;;;;;5.27;89.63;100382.37;1748801;80;21835;-57
2021/12/12 08:39:08;;;;;;;13.72;10.08;;;;;;;5.20;89.48;100385.94;1738928;80;21585;-57
2021/12/12 08:41:35;;;;;;;14.65;9.88;;;;;;;5.13;89.85;100375.13;1746796;80;21589;-58
2021/12/12 08:44:04;;;;;;;13.65;9.13;;;;;;;5.11;89.70;100379.50;1681190;84;21538;-58
2021/12/12 08:46:31;;;;;;;12.78;9.48;;;;;;;5.15;89.66;100375.98;1738134;80;21412;-57
2021/12/12 08:48:58;;;;;;;19.10;9.35;;;;;;;5.18;89.80;100382.03;1751362;79;21865;-58
2021/12/12 08:51:31;;;;;;;19.50;10.40;;;;;;;5.18;90.24;100371.61;1706013;80;21089;-60
2021/12/12 08:54:02;;;;;;;22.05;11.28;;;;;;;5.11;89.89;100376.89;1740096;80;21554;-57
2021/12/12 08:56:42;;;;;;;16.17;9.03;;;;;;;5.07;90.27;100381.27;1745217;80;21423;-57
2021/12/12 08:58:59;;;;;;;12.90;8.48;;;;;;;5.06;90.51;100382.13;1744247;80;21521;-57
2021/12/12 09:01:26;;;;;;;13.50;8.23;;;;;;;5.10;90.70;100382.52;1728700;79;21861;-58
2021/12/12 09:04:00;;;;;;;11.80;9.15;;;;;;;5.15;90.45;100378.59;1730479;80;21485;-57
2021/12/12 09:06:35;;;;;;;18.32;9.38;;;;;;;5.20;90.33;100384.19;1703145;82;21612;-59
2021/12/12 09:09:09;;;;;;;19.40;9.35;;;;;;;5.22;90.33;100376.36;1737096;80;21503;-57
2021/12/12 09:11:49;;;;;;;15.03;8.30;;;;;;;5.20;90.40;100372.91;1724169;80;20956;-57
2021/12/12 09:14:33;;;;;;;8.73;7.75;;;;;;;5.20;90.50;100370.30;1732378;80;21846;-58
2021/12/12 09:17:08;;;;;;;12.85;7.90;;;;;;;5.26;90.97;100378.91;1731975;80;21551;-58
2021/12/12 09:19:40;;;;;;;10.15;8.20;;;;;;;5.32;90.29;100383.20;1729215;80;21493;-57
2021/12/12 09:22:18;;;;;;;24.35;9.85;;;;;;;5.29;90.12;100378.00;1726568;82;21421;-57
2021/12/12 09:25:00;;;;;;;;;;;;;;;5.22;90.17;100378.52;1731801;80;21545;-58
2021/12/12 09:27:40;;;;;;;7.78;7.05;;;;;;;5.21;90.26;100373.31;1733609;80;21821;-58
2021/12/12 09:30:14;;;;;;;8.80;7.50;;;;;;;5.27;90.04;100370.64;1727440;80;21707;-58
2021/12/12 09:33:01;;;;;;;7.83;7.10;;;;;;;5.31;89.78;100368.87;1737175;80;21964;-58
2021/12/12 09:35:46;;;;;;;14.03;9.30;;;;;;;5.26;89.70;100373.69;1722646;80;21461;-58
2021/12/12 09:38:28;;;;;;;13.78;9.08;;;;;;;5.16;89.55;100372.06;1731072;80;21510;-57
2021/12/12 09:41:37;;;;;;;17.87;8.33;;;;;;;5.15;90.82;100374.23;1732726;80;21560;-57
2021/12/12 09:44:44;;;;;;;11.20;8.90;;;;;;;5.18;90.17;100375.93;1729491;82;21060;-56
2021/12/12 09:48:15;;;;;;;15.28;8.35;;;;;;;5.15;90.19;100369.46;1729965;80;21506;-56
2021/12/12 09:54:07;;;;;;;17.45;9.83;;;;;;;5.16;90.12;100359.44;1672146;84;25384;-57
2021/12/12 09:57:00;;;;;;;15.68;9.53;;;;;;;5.18;90.06;100365.50;1703732;82;21068;-56
2021/12/12 09:59:44;;;;;;;12.65;8.50;;;;;;;5.20;89.58;100372.45;1723576;80;21625;-57
2021/12/12 10:02:43;;;;;;;14.20;9.40;;;;;;;5.21;89.45;100377.22;1743577;80;21581;-57
2021/12/12 10:05:53;;;;;;;14.40;9.43;;;;;;;5.12;89.46;100374.69;1747087;80;21545;-56
2021/12/12 10:08:51;;;;;;;12.00;10.20;;;;;;;5.05;90.09;100373.90;1758841;80;21604;-56
2021/12/12 10:11:24;;;;;;;;;;;;;;;5.07;89.81;100366.48;1754446;80;21765;-56
2021/12/12 10:14:17;;;;;;;14.65;11.60;;;;;;;5.10;89.42;100361.66;1747743;80;20512;-57
2021/12/12 10:16:58;;;;;;;14.93;10.28;;;;;;;5.12;89.16;100361.66;1735406;80;21547;-56
2021/12/12 10:20:07;;;;;;;16.32;10.25;;;;;;;5.09;89.44;100356.05;1747098;80;21590;-57
2021/12/12 10:23:03;;;;;;;20.02;10.00;;;;;;;4.99;88.85;100355.68;1755692;79;21408;-57
2021/12/12 10:25:48;;;;;;;18.30;9.28;;;;;;;4.96;89.42;100359.64;1744260;80;21418;-57
2021/12/12 10:28:51;;;;;;;16.95;9.03;;;;;;;4.93;89.20;100350.53;1752513;80;21537;-57
2021/12/12 10:31:39;;;;;;;11.57;8.90;;;;;;;4.92;89.29;100347.52;1748833;80;20963;-57
2021/12/12 10:34:16;;;;;;;12.80;9.58;;;;;;;4.92;89.36;100343.61;1713249;82;21470;-58
2021/12/12 10:37:12;;;;;;;27.60;10.93;;;;;;;4.92;89.47;100343.16;1745029;80;21539;-57
2021/12/12 10:39:44;;;;;;;20.57;10.58;;;;;;;4.89;89.35;100356.20;1722864;80;22128;-57
2021/12/12 10:42:18;;;;;;;22.67;11.57;;;;;;;4.81;89.79;100353.66;1749208;80;21469;-57
2021/12/12 10:44:51;;;;;;;20.37;11.33;;;;;;;4.79;89.87;100358.47;1749435;80;21534;-57
2021/12/12 10:47:38;;;;;;;19.75;10.13;;;;;;;4.79;89.83;100358.02;1749106;80;21490;-58
2021/12/12 10:50:19;;;;;;;19.50;10.33;;;;;;;4.84;89.87;100352.76;1731848;80;21490;-58
2021/12/12 10:53:08;;;;;;;21.55;10.18;;;;;;;4.83;89.63;100361.47;1749909;80;21744;-58
2021/12/12 10:55:59;;;;;;;20.00;10.30;;;;;;;4.85;89.59;100361.02;1755610;80;21443;-57
2021/12/12 10:58:30;;;;;;;15.60;10.63;;;;;;;4.83;89.12;100362.33;1748263;80;21585;-56
2021/12/12 11:01:08;;;;;;;18.27;12.20;;;;;;;4.84;89.28;100360.58;1746946;80;21540;-56
2021/12/12 11:03:55;;;;;;;25.77;10.70;;;;;;;4.82;89.71;100356.70;1706952;80;20964;-57
2021/12/12 11:06:30;;;;;;;15.50;8.30;;;;;;;4.79;89.76;100352.81;1748991;80;21771;-56
2021/12/12 11:09:17;;;;;;;13.78;8.65;;;;;;;4.77;89.59;100346.75;1744366;80;21613;-58
2021/12/12 11:12:08;;;;;;;29.12;9.53;;;;;;;4.78;89.62;100338.04;1732127;80;21546;-56
2021/12/12 11:14:56;;;;;;;11.65;8.65;;;;;;;4.76;89.38;100335.03;1741125;80;21498;-58
2021/12/12 11:17:30;;;;;;;15.30;8.78;;;;;;;4.73;89.05;100337.23;1748826;80;21420;-56
2021/12/12 11:20:09;;;;;;;15.78;9.73;;;;;;;4.70;89.46;100325.97;1745384;80;21713;-57
2021/12/12 11:22:44;;;;;;;15.55;10.23;;;;;;;4.71;89.50;100326.38;1744205;80;21510;-57
2021/12/12 11:25:25;;;;;;;13.00;9.58;;;;;;;4.67;89.36;100332.94;1745691;80;21457;-58
2021/12/12 11:27:59;;;;;;;14.70;11.50;;;;;;;4.68;89.54;100323.38;1748706;80;21455;-57
2021/12/12 11:30:35;;;;;;;20.25;13.22;;;;;;;4.64;89.08;100317.77;1746991;80;21483;-57
2021/12/12 11:33:06;;;;;;;22.07;12.23;;;;;;;4.62;88.65;100318.22;1738386;80;21951;-57
2021/12/12 11:35:33;;;;;;;15.70;11.10;;;;;;;4.60;88.36;100319.53;1718927;82;21566;-57
2021/12/12 11:38:17;;;;;;;14.78;11.60;;;;;;;4.61;88.41;100312.57;1716107;82;21044;-57
2021/12/12 11:41:00;;;;;;;12.70;9.88;;;;;;;4.62;88.42;100307.80;1722734;82;21001;-56
2021/12/12 11:43:41;;;;;;;15.03;9.60;;;;;;;4.65;88.23;100302.55;1731520;82;21428;-57
2021/12/12 11:46:20;;;;;;;18.37;12.80;;;;;;;4.65;88.21;100307.75;1721947;82;21698;-58
2021/12/12 11:48:56;;;;;;;16.67;12.50;;;;;;;4.55;88.08;100304.81;1724600;82;20970;-56
2021/12/12 11:51:48;;;;;;;18.70;12.65;;;;;;;4.47;88.56;100302.27;1723449;82;21492;-57
2021/12/12 11:54:56;;;;;;;16.23;11.63;;;;;;;4.44;89.70;100304.88;1729237;82;21463;-57
2021/12/12 11:57:34;;;;;;;17.57;12.88;;;;;;;4.43;89.12;100306.62;1706680;82;21487;-57
2021/12/12 12:00:17;;;;;;;29.05;13.48;;;;;;;4.44;89.14;100310.09;1718990;82;21558;-56
2021/12/12 12:02:58;;;;;;;25.75;13.20;;;;;;;4.37;89.99;100311.89;1722729;82;21418;-57
2021/12/12 12:05:45;;;;;;;25.80;13.38;;;;;;;4.24;89.74;100309.80;1722755;82;21536;-57
2021/12/12 12:08:37;;;;;;;27.67;14.70;;;;;;;4.18;90.54;100308.55;1719013;82;21415;-57
2021/12/12 12:11:46;;;;;;;17.80;13.88;;;;;;;4.20;91.22;100305.48;1725343;82;21536;-57
2021/12/12 12:14:39;;;;;;;19.02;12.18;;;;;;;4.26;91.07;100305.44;1704490;83;21815;-59